createdAt,value
2019-04-07T00:00:34.406Z,8.75
2019-04-07T00:03:08.644Z,8.80
2019-04-07T00:05:40.775Z,8.81
2019-04-07T00:08:12.564Z,8.82
2019-04-07T00:10:45.292Z,8.81
2019-04-07T00:13:17.326Z,8.81
2019-04-07T00:15:49.943Z,8.86
2019-04-07T00:18:23.033Z,8.82
2019-04-07T00:20:55.265Z,8.77
2019-04-07T00:23:27.308Z,8.76
2019-04-07T00:26:00.163Z,8.77
2019-04-07T00:28:35.185Z,8.77
2019-04-07T00:31:06.597Z,8.78
2019-04-07T00:33:40.176Z,8.88
2019-04-07T00:36:12.298Z,8.86
2019-04-07T00:38:45.001Z,8.81
2019-04-07T00:41:17.235Z,8.79
2019-04-07T00:43:49.648Z,8.83
2019-04-07T00:46:23.422Z,8.79
2019-04-07T00:48:56.202Z,8.82
2019-04-07T00:51:28.617Z,8.84
2019-04-07T00:54:01.123Z,8.75
2019-04-07T00:56:33.674Z,8.70
2019-04-07T00:59:06.875Z,8.59
2019-04-07T01:01:39.901Z,8.65
2019-04-07T01:04:13.112Z,8.56
2019-04-07T01:06:45.988Z,8.49
2019-04-07T01:09:18.755Z,8.49
2019-04-07T01:11:51.052Z,8.48
2019-04-07T01:14:24.710Z,8.44
2019-04-07T01:16:57.446Z,8.43
2019-04-07T01:19:29.181Z,8.43
2019-04-07T01:22:03.194Z,8.39
2019-04-07T01:24:38.501Z,8.41
2019-04-07T01:27:11.525Z,8.38
2019-04-07T01:29:44.550Z,8.42
2019-04-07T01:32:16.955Z,8.33
2019-04-07T01:34:52.112Z,8.42
2019-04-07T01:37:24.256Z,8.40
2019-04-07T01:39:56.691Z,8.45
2019-04-07T01:42:46.495Z,8.35
2019-04-07T01:45:33.419Z,8.33
2019-04-07T01:48:24.661Z,8.42
2019-04-07T01:51:25.819Z,8.45
2019-04-07T01:54:19.989Z,8.39
2019-04-07T01:57:13.497Z,8.38
2019-04-07T02:00:03.129Z,8.48
2019-04-07T02:02:57.562Z,8.54
2019-04-07T02:05:59.283Z,8.57
2019-04-07T02:08:54.998Z,8.46
2019-04-07T02:11:38.626Z,8.39
2019-04-07T02:14:30.283Z,8.35
2019-04-07T02:17:12.021Z,8.32
2019-04-07T02:20:18.093Z,8.37
2019-04-07T02:23:10.606Z,8.31
2019-04-07T02:25:54.913Z,8.26
2019-04-07T02:28:52.559Z,8.25
2019-04-07T02:31:52.274Z,8.28
2019-04-07T02:34:53.144Z,8.30
2019-04-07T02:37:52.891Z,8.26
2019-04-07T02:40:48.787Z,8.25
2019-04-07T02:43:43.162Z,8.27
2019-04-07T02:46:33.289Z,8.22
2019-04-07T02:49:26.749Z,8.20
2019-04-07T02:52:12.361Z,8.22
2019-04-07T02:54:55.201Z,8.18
2019-04-07T02:57:58.235Z,8.26
2019-04-07T03:00:52.398Z,8.26
2019-04-07T03:03:42.771Z,8.31
2019-04-07T03:06:38.419Z,8.30
2019-04-07T03:09:21.846Z,8.29
2019-04-07T03:12:05.398Z,8.27
2019-04-07T03:14:55.866Z,8.33
2019-04-07T03:17:46.334Z,8.30
2019-04-07T03:20:40.978Z,8.35
2019-04-07T03:23:40.257Z,8.31
2019-04-07T03:26:29.435Z,8.30
2019-04-07T03:29:11.917Z,8.28
2019-04-07T03:32:00.055Z,8.29
2019-04-07T03:34:38.967Z,8.24
2019-04-07T03:37:34.300Z,8.18
2019-04-07T03:40:12.625Z,8.18
2019-04-07T03:42:57.269Z,8.27
2019-04-07T03:45:46.241Z,8.28
2019-04-07T03:48:36.975Z,8.27
2019-04-07T03:51:42.612Z,8.30
2019-04-07T03:54:26.644Z,8.25
2019-04-07T03:57:19.825Z,8.24
2019-04-07T04:00:16.840Z,8.22
2019-04-07T04:03:04.156Z,8.28
2019-04-07T04:05:43.401Z,8.19
2019-04-07T04:08:23.277Z,8.17
2019-04-07T04:11:14.206Z,8.10
2019-04-07T04:14:07.855Z,8.08
2019-04-07T04:16:45.845Z,8.11
2019-04-07T04:19:17.428Z,8.08
2019-04-07T04:21:48.681Z,8.18
2019-04-07T04:24:20.005Z,8.18
2019-04-07T04:26:52.301Z,8.17
2019-04-07T04:29:24.636Z,8.17
2019-04-07T04:31:57.106Z,8.12
2019-04-07T04:34:28.520Z,8.12
2019-04-07T04:37:00.045Z,8.04
2019-04-07T04:39:34.138Z,8.07
2019-04-07T04:42:05.751Z,8.08
2019-04-07T04:44:37.982Z,8.10
2019-04-07T04:47:10.186Z,8.03
2019-04-07T04:49:43.533Z,8.11
2019-04-07T04:52:15.681Z,8.11
2019-04-07T04:54:47.482Z,8.15
2019-04-07T04:57:19.997Z,8.23
2019-04-07T04:59:51.263Z,8.11
2019-04-07T05:02:23.538Z,8.14
2019-04-07T05:04:56.115Z,8.13
2019-04-07T05:07:27.559Z,8.08
2019-04-07T05:09:58.879Z,8.14
2019-04-07T05:12:31.354Z,8.14
2019-04-07T05:15:02.618Z,8.10
2019-04-07T05:17:33.983Z,8.13
2019-04-07T05:20:06.040Z,8.13
2019-04-07T05:22:37.944Z,8.10
2019-04-07T05:25:09.472Z,8.13
2019-04-07T05:27:40.597Z,8.12
2019-04-07T05:30:12.347Z,8.17
2019-04-07T05:32:44.289Z,8.18
2019-04-07T05:35:15.531Z,8.12
2019-04-07T05:37:59.906Z,8.20
2019-04-07T05:40:21.466Z,8.28
2019-04-07T05:42:53.208Z,8.27
2019-04-07T05:45:25.360Z,8.28
2019-04-07T05:47:56.724Z,8.32
2019-04-07T05:50:28.795Z,8.34
2019-04-07T05:53:00.319Z,8.39
2019-04-07T05:55:32.309Z,8.37
2019-04-07T05:58:06.969Z,8.41
2019-04-07T06:00:37.179Z,8.33
2019-04-07T06:03:09.339Z,8.39
2019-04-07T06:05:41.023Z,8.42
2019-04-07T06:08:24.650Z,8.51
2019-04-07T06:10:45.900Z,8.51
2019-04-07T06:13:17.620Z,8.59
2019-04-07T06:15:51.157Z,8.67
2019-04-07T06:18:22.813Z,8.68
2019-04-07T06:20:54.515Z,8.80
2019-04-07T06:23:28.566Z,8.97
2019-04-07T06:25:59.456Z,8.76
2019-04-07T06:28:31.610Z,8.83
2019-04-07T06:31:03.184Z,8.88
2019-04-07T06:33:37.620Z,8.95
2019-04-07T06:36:08.248Z,8.95
2019-04-07T06:38:43.627Z,9.04
2019-04-07T06:41:13.754Z,9.03
2019-04-07T06:43:45.197Z,9.15
2019-04-07T06:46:39.041Z,9.11
2019-04-07T06:49:19.761Z,9.19
2019-04-07T06:52:14.572Z,9.18
2019-04-07T06:55:14.656Z,9.22
2019-04-07T06:58:02.094Z,9.38
2019-04-07T07:00:47.294Z,9.40
2019-04-07T07:03:53.824Z,9.49
2019-04-07T07:06:55.809Z,9.41
2019-04-07T07:11:35.451Z,9.67
2019-04-07T07:14:32.879Z,9.83
2019-04-07T07:17:27.879Z,10.01
2019-04-07T07:20:21.789Z,10.48
2019-04-07T07:23:00.444Z,11.03
2019-04-07T07:25:33.060Z,11.59
2019-04-07T07:28:04.470Z,11.80
2019-04-07T07:30:36.114Z,12.13
2019-04-07T07:33:09.990Z,11.94
2019-04-07T07:35:40.979Z,11.97
2019-04-07T07:38:12.626Z,11.78
2019-04-07T07:40:44.988Z,11.71
2019-04-07T07:43:17.614Z,12.06
2019-04-07T07:45:48.893Z,12.45
2019-04-07T07:48:20.800Z,13.21
2019-04-07T07:50:53.735Z,14.40
2019-04-07T07:53:28.115Z,14.42
2019-04-07T07:55:58.425Z,15.05
2019-04-07T07:58:32.622Z,15.46
2019-04-07T08:01:03.301Z,15.48
2019-04-07T08:03:35.184Z,14.98
2019-04-07T08:06:08.342Z,15.73
2019-04-07T08:08:39.696Z,15.76
2019-04-07T08:11:11.232Z,16.02
2019-04-07T08:13:44.984Z,16.16
2019-04-07T08:16:16.282Z,16.19
2019-04-07T08:18:47.753Z,16.35
2019-04-07T08:21:20.158Z,16.27
2019-04-07T08:23:52.396Z,16.21
2019-04-07T08:26:25.099Z,16.30
2019-04-07T08:28:56.628Z,16.65
2019-04-07T08:31:29.277Z,16.05
2019-04-07T08:34:01.556Z,16.09
2019-04-07T08:36:33.833Z,16.22
2019-04-07T08:39:18.534Z,15.99
2019-04-07T08:41:41.641Z,15.31
2019-04-07T08:44:13.152Z,15.21
2019-04-07T08:46:44.677Z,15.12
2019-04-07T08:49:17.138Z,14.88
2019-04-07T08:51:48.377Z,14.67
2019-04-07T08:54:19.957Z,14.68
2019-04-07T08:56:52.018Z,14.89
2019-04-07T08:59:23.556Z,14.90
2019-04-07T09:01:57.061Z,15.65
2019-04-07T09:04:28.467Z,16.41
2019-04-07T09:07:02.189Z,17.03
2019-04-07T09:09:36.887Z,16.69
2019-04-07T09:12:06.000Z,16.79
2019-04-07T09:14:39.716Z,15.91
2019-04-07T09:17:32.217Z,15.84
2019-04-07T09:20:29.199Z,15.38
2019-04-07T09:23:20.054Z,14.75
2019-04-07T09:26:11.781Z,14.45
2019-04-07T09:29:10.488Z,14.42
2019-04-07T09:31:56.357Z,14.38
2019-04-07T09:34:50.546Z,14.28
2019-04-07T09:37:26.223Z,14.01
2019-04-07T09:40:06.843Z,13.96
2019-04-07T09:42:47.429Z,13.80
2019-04-07T09:45:38.596Z,13.97
2019-04-07T09:48:21.011Z,14.01
2019-04-07T09:51:11.146Z,14.00
2019-04-07T09:54:10.025Z,14.03
2019-04-07T09:57:03.426Z,14.21
2019-04-07T09:59:53.380Z,14.44
2019-04-07T10:02:43.721Z,14.35
2019-04-07T10:05:32.718Z,14.34
2019-04-07T10:08:22.892Z,14.44
2019-04-07T10:11:12.850Z,14.33
2019-04-07T10:14:05.675Z,14.22
2019-04-07T10:16:57.400Z,14.42
2019-04-07T10:19:47.526Z,14.44
2019-04-07T10:22:35.011Z,14.34
2019-04-07T10:25:26.873Z,14.34
2019-04-07T10:28:22.379Z,14.18
2019-04-07T10:31:13.830Z,14.41
2019-04-07T10:34:08.077Z,14.42
2019-04-07T10:37:03.679Z,14.53
2019-04-07T10:40:33.365Z,14.53
2019-04-07T10:43:08.508Z,14.10
2019-04-07T10:45:45.926Z,13.90
2019-04-07T10:48:33.325Z,13.44
2019-04-07T10:51:47.672Z,13.47
2019-04-07T10:54:52.476Z,13.52
2019-04-07T10:57:31.198Z,13.66
2019-04-07T11:00:21.416Z,13.58
2019-04-07T11:03:06.466Z,13.25
2019-04-07T11:05:55.358Z,13.21
2019-04-07T11:08:44.322Z,13.28
2019-04-07T11:11:49.098Z,13.43
2019-04-07T11:14:44.422Z,13.46
2019-04-07T11:17:38.298Z,13.38
2019-04-07T11:20:17.880Z,13.22
2019-04-07T11:23:16.582Z,13.20
2019-04-07T11:26:05.460Z,13.23
2019-04-07T11:28:51.165Z,13.24
2019-04-07T11:31:30.965Z,13.44
2019-04-07T11:34:27.107Z,13.40
2019-04-07T11:37:20.021Z,13.44
2019-04-07T11:40:10.763Z,13.48
2019-04-07T11:43:04.425Z,13.43
2019-04-07T11:46:03.566Z,13.38
2019-04-07T11:48:52.310Z,13.48
2019-04-07T11:51:32.473Z,13.43
2019-04-07T11:54:24.132Z,13.48
2019-04-07T11:57:21.531Z,13.21
2019-04-07T12:00:01.170Z,13.27
2019-04-07T12:02:51.917Z,13.37
2019-04-07T12:05:55.139Z,13.15
2019-04-07T12:08:39.369Z,13.08
2019-04-07T12:11:48.287Z,13.27
2019-04-07T12:14:33.926Z,13.45
2019-04-07T12:17:25.610Z,13.68
2019-04-07T12:20:15.208Z,13.99
2019-04-07T12:23:22.921Z,14.32
2019-04-07T12:26:05.159Z,14.41
2019-04-07T12:28:47.591Z,14.62
2019-04-07T12:31:43.448Z,14.71
2019-04-07T12:34:45.842Z,14.86
2019-04-07T12:37:42.396Z,14.99
2019-04-07T12:40:34.544Z,14.96
2019-04-07T12:43:13.195Z,14.88
2019-04-07T12:45:53.713Z,14.88
2019-04-07T12:48:46.949Z,14.83
2019-04-07T12:51:42.976Z,15.03
2019-04-07T12:54:22.214Z,15.10
2019-04-07T12:57:26.174Z,15.12
2019-04-07T13:00:23.924Z,15.07
2019-04-07T13:03:13.080Z,15.31
2019-04-07T13:06:08.674Z,15.41
2019-04-07T13:08:58.162Z,15.42
2019-04-07T13:11:40.120Z,15.54
2019-04-07T13:14:41.304Z,15.62
2019-04-07T13:17:41.022Z,15.62
2019-04-07T13:20:33.283Z,15.51
2019-04-07T13:23:37.271Z,15.77
2019-04-07T13:26:30.246Z,15.83
2019-04-07T13:29:20.531Z,15.98
2019-04-07T13:32:00.157Z,15.91
2019-04-07T13:34:49.886Z,15.52
2019-04-07T13:37:27.164Z,15.50
2019-04-07T13:40:20.342Z,15.55
2019-04-07T13:43:04.251Z,15.75
2019-04-07T13:45:53.940Z,15.81
2019-04-07T13:48:51.551Z,15.65
2019-04-07T13:51:40.877Z,15.61
2019-04-07T13:54:27.771Z,15.73
2019-04-07T13:57:22.228Z,15.86
2019-04-07T14:00:15.848Z,15.85
2019-04-07T14:03:08.356Z,15.87
2019-04-07T14:06:11.321Z,15.79
2019-04-07T14:09:02.585Z,15.87
2019-04-07T14:14:45.345Z,16.16
2019-04-07T14:17:41.891Z,16.19
2019-04-07T14:20:22.616Z,16.33
2019-04-07T14:23:12.167Z,16.49
2019-04-07T14:26:05.713Z,16.39
2019-04-07T14:28:56.537Z,16.20
2019-04-07T14:31:43.142Z,16.13
2019-04-07T14:34:41.301Z,16.05
2019-04-07T14:37:40.831Z,15.98
2019-04-07T14:40:32.135Z,16.02
2019-04-07T14:43:22.289Z,15.92
2019-04-07T14:45:59.148Z,15.99
2019-04-07T14:49:00.079Z,16.06
2019-04-07T14:51:42.460Z,16.19
2019-04-07T14:54:37.740Z,16.18
2019-04-07T14:57:19.097Z,16.34
2019-04-07T15:00:07.841Z,16.39
2019-04-07T15:02:41.721Z,16.44
2019-04-07T15:05:18.567Z,16.50
2019-04-07T15:08:12.421Z,16.42
2019-04-07T15:10:47.322Z,16.35
2019-04-07T15:13:27.967Z,16.43
2019-04-07T15:15:57.215Z,16.27
2019-04-07T15:18:28.693Z,16.15
2019-04-07T15:21:00.330Z,16.05
2019-04-07T15:23:33.118Z,15.87
2019-04-07T15:26:05.329Z,15.76
2019-04-07T15:28:37.230Z,15.60
2019-04-07T15:31:08.647Z,15.56
2019-04-07T15:33:40.043Z,15.38
2019-04-07T15:36:12.796Z,15.33
2019-04-07T15:38:44.220Z,15.18
2019-04-07T15:41:18.308Z,15.09
2019-04-07T15:43:50.036Z,14.78
2019-04-07T15:46:22.510Z,14.76
2019-04-07T15:48:55.898Z,14.73
2019-04-07T15:51:28.296Z,14.53
2019-04-07T15:54:00.661Z,14.59
2019-04-07T15:56:32.564Z,14.59
2019-04-07T15:59:04.326Z,14.57
2019-04-07T16:01:36.087Z,14.57
2019-04-07T16:04:09.615Z,14.61
2019-04-07T16:06:41.897Z,14.66
2019-04-07T16:09:29.102Z,14.70
2019-04-07T16:11:49.641Z,14.68
2019-04-07T16:14:21.910Z,14.54
2019-04-07T16:16:53.722Z,14.48
2019-04-07T16:19:37.351Z,14.52
2019-04-07T16:21:58.248Z,14.49
2019-04-07T16:24:31.065Z,14.52
2019-04-07T16:27:05.474Z,14.56
2019-04-07T16:29:36.473Z,14.63
2019-04-07T16:32:08.145Z,14.68
2019-04-07T16:34:42.174Z,14.63
2019-04-07T16:37:12.386Z,14.60
2019-04-07T16:39:44.531Z,14.53
2019-04-07T16:42:16.054Z,14.44
2019-04-07T16:44:48.340Z,14.49
2019-04-07T16:47:24.439Z,14.53
2019-04-07T16:49:52.686Z,14.53
2019-04-07T16:52:24.421Z,14.39
2019-04-07T16:54:56.008Z,14.36
2019-04-07T16:57:31.036Z,14.31
2019-04-07T17:00:01.562Z,14.27
2019-04-07T17:02:33.693Z,14.28
2019-04-07T17:05:05.792Z,14.45
2019-04-07T17:07:38.224Z,14.32
2019-04-07T17:10:09.826Z,14.44
2019-04-07T17:12:41.224Z,14.49
2019-04-07T17:15:13.532Z,14.37
2019-04-07T17:17:46.535Z,14.33
2019-04-07T17:20:18.961Z,14.26
2019-04-07T17:22:51.096Z,13.94
2019-04-07T17:25:22.890Z,13.79
2019-04-07T17:27:56.019Z,13.71
2019-04-07T17:30:28.993Z,13.70
2019-04-07T17:33:03.294Z,13.60
2019-04-07T17:35:35.581Z,13.57
2019-04-07T17:38:08.604Z,13.50
2019-04-07T17:40:49.227Z,13.48
2019-04-07T17:43:55.118Z,13.45
2019-04-07T17:46:37.379Z,13.41
2019-04-07T17:49:32.946Z,13.31
2019-04-07T17:52:21.825Z,13.21
2019-04-07T17:55:25.265Z,13.06
2019-04-07T17:58:16.020Z,12.99
2019-04-07T18:01:20.616Z,13.05
2019-04-07T18:04:16.151Z,13.01
2019-04-07T18:07:16.356Z,12.92
2019-04-07T18:10:10.107Z,12.85
2019-04-07T18:12:49.816Z,12.74
2019-04-07T18:15:38.312Z,12.73
2019-04-07T18:18:41.882Z,12.70
2019-04-07T18:21:46.871Z,12.68
2019-04-07T18:24:39.427Z,12.63
2019-04-07T18:27:34.190Z,12.64
2019-04-07T18:30:23.221Z,12.71
2019-04-07T18:33:06.642Z,12.64
2019-04-07T18:35:56.095Z,12.63
2019-04-07T18:38:49.653Z,12.49
2019-04-07T18:41:34.758Z,12.42
2019-04-07T18:44:23.942Z,12.37
2019-04-07T18:47:23.359Z,12.33
2019-04-07T18:50:26.839Z,12.35
2019-04-07T18:53:17.835Z,12.33
2019-04-07T18:56:26.028Z,12.30
2019-04-07T18:59:17.110Z,12.24
2019-04-07T19:02:14.072Z,12.26
2019-04-07T19:05:03.891Z,12.18
2019-04-07T19:07:48.544Z,12.09
2019-04-07T19:10:42.496Z,12.10
2019-04-07T19:13:27.006Z,12.13
2019-04-07T19:16:19.024Z,12.10
2019-04-07T19:19:21.393Z,12.09
2019-04-07T19:22:18.878Z,12.09
2019-04-07T19:25:09.267Z,12.15
2019-04-07T19:28:00.043Z,12.20
2019-04-07T19:30:59.269Z,11.99
2019-04-07T19:34:07.849Z,11.91
2019-04-07T19:36:49.928Z,11.87
2019-04-07T19:39:53.087Z,11.83
2019-04-07T19:42:43.635Z,11.93
2019-04-07T19:45:41.565Z,11.80
2019-04-07T19:48:30.940Z,11.81
2019-04-07T19:51:29.307Z,11.63
2019-04-07T19:54:27.320Z,11.58
2019-04-07T19:57:15.432Z,11.44
2019-04-07T19:59:57.033Z,11.37
2019-04-07T20:03:09.645Z,11.40
2019-04-07T20:05:53.370Z,11.41
2019-04-07T20:08:34.548Z,11.39
2019-04-07T20:11:28.461Z,11.41
2019-04-07T20:14:13.336Z,11.40
2019-04-07T20:16:59.866Z,11.44
2019-04-07T20:19:51.345Z,11.33
2019-04-07T20:22:35.774Z,11.37
2019-04-07T20:25:20.201Z,11.37
2019-04-07T20:28:30.248Z,11.39
2019-04-07T20:31:26.475Z,11.41
2019-04-07T20:34:16.636Z,11.32
2019-04-07T20:37:26.681Z,11.23
2019-04-07T20:40:22.188Z,11.07
2019-04-07T20:43:01.078Z,10.88
2019-04-07T20:45:49.129Z,10.89
2019-04-07T20:48:46.808Z,10.87
2019-04-07T20:51:28.361Z,10.90
2019-04-07T20:54:24.633Z,10.85
2019-04-07T20:57:07.533Z,10.72
2019-04-07T21:00:03.667Z,10.73
2019-04-07T21:03:06.467Z,10.70
2019-04-07T21:05:42.001Z,10.73
2019-04-07T21:08:38.764Z,10.70
2019-04-07T21:11:24.089Z,10.69
2019-04-07T21:14:17.185Z,10.74
2019-04-07T21:17:10.754Z,10.71
2019-04-07T21:20:05.407Z,10.68
2019-04-07T21:23:02.802Z,10.70
2019-04-07T21:25:55.832Z,10.68
2019-04-07T21:28:47.205Z,10.55
2019-04-07T21:31:41.316Z,10.43
2019-04-07T21:34:29.589Z,10.48
2019-04-07T21:37:19.825Z,10.46
2019-04-07T21:40:04.200Z,10.47
2019-04-07T21:43:00.536Z,10.51
2019-04-07T21:45:49.849Z,10.56
2019-04-07T21:48:45.938Z,10.54
2019-04-07T21:51:52.665Z,10.49
2019-04-07T21:54:46.996Z,10.49
2019-04-07T21:57:55.338Z,10.51
2019-04-07T22:00:43.326Z,10.47
2019-04-07T22:03:46.187Z,10.51
2019-04-07T22:06:32.099Z,10.54
2019-04-07T22:09:15.898Z,10.50
2019-04-07T22:11:45.943Z,10.52
2019-04-07T22:14:17.074Z,10.48
2019-04-07T22:16:48.969Z,10.45
2019-04-07T22:19:21.075Z,10.41
2019-04-07T22:21:55.759Z,10.42
2019-04-07T22:24:26.327Z,10.45
2019-04-07T22:26:57.639Z,10.31
2019-04-07T22:29:28.861Z,10.24
2019-04-07T22:32:00.070Z,10.22
2019-04-07T22:34:32.653Z,10.21
2019-04-07T22:37:04.838Z,10.19
2019-04-07T22:39:36.110Z,10.18
2019-04-07T22:42:07.301Z,10.21
2019-04-07T22:44:38.521Z,10.15
2019-04-07T22:48:16.533Z,10.22
2019-04-07T22:50:47.746Z,10.17
2019-04-07T22:53:22.312Z,10.14
2019-04-07T22:55:52.712Z,10.14
2019-04-07T22:58:24.284Z,10.11
2019-04-07T23:00:55.559Z,10.12
2019-04-07T23:03:27.153Z,10.16
2019-04-07T23:05:59.041Z,10.13
2019-04-07T23:08:30.319Z,10.02
2019-04-07T23:11:02.200Z,10.08
2019-04-07T23:13:33.512Z,10.10
2019-04-07T23:16:10.538Z,10.04
2019-04-07T23:18:40.736Z,9.99
2019-04-07T23:21:12.106Z,9.89
2019-04-07T23:23:43.394Z,9.92
2019-04-07T23:26:14.563Z,9.90
2019-04-07T23:28:47.063Z,9.80
2019-04-07T23:31:19.438Z,9.81
2019-04-07T23:33:53.354Z,9.85
2019-04-07T23:36:24.784Z,9.85
2019-04-07T23:38:55.992Z,9.80
2019-04-07T23:41:27.793Z,9.74
2019-04-07T23:43:59.065Z,9.70
2019-04-07T23:46:30.341Z,9.74
2019-04-07T23:49:01.649Z,9.77
2019-04-07T23:51:32.855Z,9.72
2019-04-07T23:54:09.167Z,9.67
2019-04-07T23:56:41.806Z,9.61
2019-04-07T23:59:16.790Z,9.63
